Time;durP1;ratioP1;P1;durP2;ratioP2;P2;SDS_P1;SDS_P2;PMS_P1;PMS_P2;Temp;Humidity;BMP_temperature;BMP_pressure;BME280_temperature;BME280_humidity;BME280_pressure;Samples;Min_cycle;Max_cycle;Signal;HPM_P1;HPM_P2
2021/03/15 00:01:05;;;;;;;28.33;16.40;;;;;;;;;;6326508;22;20406;-94
2021/03/15 00:03:31;;;;;;;16.07;14.30;;;;;;;;;;6327559;22;20404;-95
2021/03/15 00:05:58;;;;;;;18.20;13.77;;;;;;;;;;6319188;22;20443;-92
2021/03/15 00:08:25;;;;;;;17.97;14.83;;;;;;;;;;6322030;22;20419;-95
2021/03/15 00:10:51;;;;;;;16.87;15.10;;;;;;;;;;6319163;22;20412;-92
2021/03/15 00:13:18;;;;;;;17.07;14.13;;;;;;;;;;6320294;22;20411;-95
2021/03/15 00:15:44;;;;;;;19.77;14.90;;;;;;;;;;6319259;22;20414;-93
2021/03/15 00:18:10;;;;;;;20.53;15.00;;;;;;;;;;6322648;22;20408;-92
2021/03/15 00:20:36;;;;;;;17.20;15.00;;;;;;;;;;6319872;22;20430;-92
2021/03/15 00:23:03;;;;;;;22.67;15.60;;;;;;;;;;6319975;22;20417;-95
2021/03/15 00:25:29;;;;;;;20.40;15.87;;;;;;;;;;6321198;22;20409;-95
2021/03/15 00:27:55;;;;;;;19.37;16.20;;;;;;;;;;6321565;22;20416;-94
2021/03/15 00:30:22;;;;;;;20.53;15.77;;;;;;;;;;6322816;22;20441;-93
2021/03/15 00:32:48;;;;;;;20.00;15.07;;;;;;;;;;6319742;22;20398;-94
2021/03/15 00:35:15;;;;;;;17.90;15.27;;;;;;;;;;6319723;22;20431;-93
2021/03/15 00:37:42;;;;;;;16.97;15.17;;;;;;;;;;6319899;22;20405;-95
2021/03/15 00:40:10;;;;;;;17.80;15.10;;;;;;;;;;6320748;22;20400;-93
2021/03/15 00:42:36;;;;;;;16.70;14.53;;;;;;;;;;6318702;22;20405;-95
2021/03/15 00:45:03;;;;;;;16.90;15.00;;;;;;;;;;6320419;22;20406;-93
2021/03/15 00:47:29;;;;;;;17.00;15.20;;;;;;;;;;6317860;22;20415;-94
2021/03/15 00:49:55;;;;;;;15.33;13.73;;;;;;;;;;6319964;22;20534;-92
2021/03/15 00:52:24;;;;;;;18.10;14.20;;;;;;;;;;6319369;22;20412;-93
2021/03/15 00:54:51;;;;;;;19.63;15.23;;;;;;;;;;6321843;22;20400;-93
2021/03/15 00:57:19;;;;;;;19.93;14.83;;;;;;;;;;6318188;22;20494;-95
2021/03/15 00:59:45;;;;;;;17.83;15.73;;;;;;;;;;6321565;22;20415;-95
2021/03/15 01:02:11;;;;;;;17.30;15.10;;;;;;;;;;6318560;22;20418;-94
2021/03/15 01:04:37;;;;;;;21.37;15.10;;;;;;;;;;6320489;22;20438;-94
2021/03/15 01:07:04;;;;;;;18.70;15.50;;;;;;;;;;6321733;22;20408;-91
2021/03/15 01:09:30;;;;;;;19.80;14.80;;;;;;;;;;6319062;22;20453;-94
2021/03/15 01:11:57;;;;;;;17.07;14.60;;;;;;;;;;6324765;22;20425;-91
2021/03/15 01:14:24;;;;;;;17.47;14.60;;;;;;;;;;6319587;22;20415;-94
2021/03/15 01:16:50;;;;;;;18.43;15.80;;;;;;;;;;6319426;22;20436;-94
2021/03/15 01:19:16;;;;;;;17.13;14.50;;;;;;;;;;6317303;22;20441;-93
2021/03/15 01:21:42;;;;;;;16.60;14.77;;;;;;;;;;6321039;22;20436;-91
2021/03/15 01:24:08;;;;;;;19.20;15.10;;;;;;;;;;6318695;22;20411;-92
2021/03/15 01:26:34;;;;;;;17.47;15.00;;;;;;;;;;6317524;22;20408;-92
2021/03/15 01:29:00;;;;;;;22.80;15.00;;;;;;;;;;6315580;22;21123;-94
2021/03/15 01:31:27;;;;;;;17.13;13.83;;;;;;;;;;6320582;22;20421;-95
2021/03/15 01:33:53;;;;;;;19.67;15.83;;;;;;;;;;6318537;22;20419;-93
2021/03/15 01:36:19;;;;;;;21.83;15.17;;;;;;;;;;6319791;22;20414;-92
2021/03/15 01:38:45;;;;;;;17.20;14.43;;;;;;;;;;6318168;22;20417;-93
2021/03/15 01:41:12;;;;;;;22.63;15.03;;;;;;;;;;6319787;22;20409;-96
2021/03/15 01:43:38;;;;;;;16.80;14.10;;;;;;;;;;6319049;22;20433;-94
2021/03/15 01:46:04;;;;;;;19.07;14.60;;;;;;;;;;6319743;22;20735;-95
2021/03/15 01:48:31;;;;;;;17.63;14.47;;;;;;;;;;6319434;22;20410;-94
2021/03/15 01:50:58;;;;;;;18.37;13.73;;;;;;;;;;6319965;22;20402;-93
2021/03/15 01:53:25;;;;;;;19.57;15.90;;;;;;;;;;6321019;22;20411;-95
2021/03/15 01:55:51;;;;;;;18.73;14.60;;;;;;;;;;6320472;22;20418;-92
2021/03/15 01:58:17;;;;;;;17.17;15.20;;;;;;;;;;6317492;22;20406;-94
2021/03/15 02:00:44;;;;;;;19.33;16.17;;;;;;;;;;6317695;22;20419;-96
2021/03/15 02:03:11;;;;;;;19.60;15.90;;;;;;;;;;6319863;22;20467;-95
2021/03/15 02:05:39;;;;;;;18.97;15.23;;;;;;;;;;6319564;22;20425;-96
2021/03/15 02:08:06;;;;;;;22.13;17.23;;;;;;;;;;6318392;22;20419;-95
2021/03/15 02:10:32;;;;;;;17.60;15.50;;;;;;;;;;6318256;22;20456;-95
2021/03/15 02:13:13;;;;;;;17.70;15.77;;;;;;;;;;6322076;22;20962;-96
2021/03/15 02:15:42;;;;;;;19.60;16.00;;;;;;;;;;6318302;22;20413;-92
2021/03/15 02:18:11;;;;;;;18.90;15.97;;;;;;;;;;6321328;22;20413;-95
2021/03/15 02:20:52;;;;;;;22.70;15.40;;;;;;;;;;6291081;22;20466;-94
2021/03/15 02:23:21;;;;;;;23.07;16.40;;;;;;;;;;6317874;22;20409;-93
2021/03/15 02:25:59;;;;;;;21.87;16.80;;;;;;;;;;6316169;22;20424;-93
2021/03/15 02:28:46;;;;;;;20.27;15.97;;;;;;;;;;6317292;22;20417;-96
2021/03/15 02:31:19;;;;;;;21.40;16.43;;;;;;;;;;6290366;22;20415;-95
2021/03/15 02:34:06;;;;;;;23.37;16.83;;;;;;;;;;6320809;22;20404;-95
2021/03/15 02:36:38;;;;;;;21.93;15.00;;;;;;;;;;6318352;22;20405;-93
2021/03/15 02:39:08;;;;;;;22.27;16.53;;;;;;;;;;6322193;22;20412;-93
2021/03/15 02:41:36;;;;;;;22.87;15.07;;;;;;;;;;6291760;22;20420;-93
2021/03/15 02:44:05;;;;;;;21.00;16.50;;;;;;;;;;6317437;22;20412;-95
2021/03/15 02:46:32;;;;;;;19.03;15.13;;;;;;;;;;6316609;22;20413;-94
2021/03/15 02:49:00;;;;;;;19.60;15.27;;;;;;;;;;6319864;22;20443;-95
2021/03/15 02:51:27;;;;;;;21.33;15.60;;;;;;;;;;6319466;22;20408;-94
2021/03/15 02:53:58;;;;;;;18.27;15.17;;;;;;;;;;6321493;22;20422;-96
2021/03/15 02:56:25;;;;;;;20.03;16.23;;;;;;;;;;6320455;22;20406;-91
2021/03/15 02:58:54;;;;;;;17.43;15.53;;;;;;;;;;6318409;22;20409;-92
2021/03/15 03:01:20;;;;;;;25.87;16.27;;;;;;;;;;6326578;22;20424;-95
2021/03/15 03:03:47;;;;;;;20.20;15.63;;;;;;;;;;6320950;22;20450;-95
2021/03/15 03:06:14;;;;;;;20.73;15.87;;;;;;;;;;6320444;22;20410;-92
2021/03/15 03:08:41;;;;;;;23.00;16.50;;;;;;;;;;6318785;22;20456;-93
2021/03/15 03:11:10;;;;;;;18.40;16.10;;;;;;;;;;6322399;22;20415;-94
2021/03/15 03:13:36;;;;;;;19.27;16.03;;;;;;;;;;6319774;22;20401;-94
2021/03/15 03:16:03;;;;;;;19.93;16.60;;;;;;;;;;6318324;22;21220;-92
2021/03/15 03:18:30;;;;;;;20.33;15.90;;;;;;;;;;6316300;22;20412;-95
2021/03/15 03:20:57;;;;;;;19.97;16.57;;;;;;;;;;6320605;22;20800;-94
2021/03/15 03:23:25;;;;;;;22.40;15.63;;;;;;;;;;6318625;22;20408;-94
2021/03/15 03:25:53;;;;;;;18.67;15.40;;;;;;;;;;6317771;22;20421;-94
2021/03/15 03:28:23;;;;;;;20.63;16.93;;;;;;;;;;6318568;22;20405;-95
2021/03/15 03:30:49;;;;;;;23.30;17.40;;;;;;;;;;6320572;22;20449;-93
2021/03/15 03:33:15;;;;;;;18.40;15.13;;;;;;;;;;6316197;22;20409;-94
2021/03/15 03:35:42;;;;;;;20.43;17.03;;;;;;;;;;6318631;22;20979;-94
2021/03/15 03:38:08;;;;;;;20.47;17.20;;;;;;;;;;6317529;22;20407;-94
2021/03/15 03:40:34;;;;;;;22.20;17.30;;;;;;;;;;6319692;22;20448;-96
2021/03/15 03:43:00;;;;;;;26.20;18.90;;;;;;;;;;6316775;22;20414;-93
2021/03/15 03:45:27;;;;;;;23.00;18.17;;;;;;;;;;6316228;22;20417;-94
2021/03/15 03:47:54;;;;;;;24.27;17.50;;;;;;;;;;6319594;22;20404;-95
2021/03/15 03:50:21;;;;;;;21.63;17.17;;;;;;;;;;6320629;22;20456;-95
2021/03/15 03:52:50;;;;;;;21.00;18.73;;;;;;;;;;6321412;22;20443;-96
2021/03/15 03:55:16;;;;;;;23.43;17.50;;;;;;;;;;6319523;22;20419;-95
2021/03/15 03:57:44;;;;;;;22.00;16.60;;;;;;;;;;6321086;22;20405;-96
2021/03/15 04:00:12;;;;;;;23.60;16.70;;;;;;;;;;6290651;22;20471;-93
2021/03/15 04:02:44;;;;;;;22.77;16.90;;;;;;;;;;6321614;22;20416;-93
2021/03/15 04:05:14;;;;;;;22.57;18.00;;;;;;;;;;6318106;22;20438;-93
2021/03/15 04:07:45;;;;;;;22.10;16.50;;;;;;;;;;6321677;22;20468;-93
2021/03/15 04:10:12;;;;;;;25.27;18.30;;;;;;;;;;6320447;22;20857;-95
2021/03/15 04:12:40;;;;;;;22.00;17.83;;;;;;;;;;6317972;22;20408;-94
2021/03/15 04:15:07;;;;;;;24.83;17.07;;;;;;;;;;6317331;22;20410;-93
2021/03/15 04:17:35;;;;;;;20.90;16.90;;;;;;;;;;6321326;22;20438;-95
2021/03/15 04:20:04;;;;;;;21.70;17.80;;;;;;;;;;6321207;22;20461;-94
2021/03/15 04:22:32;;;;;;;21.90;18.43;;;;;;;;;;6319275;22;20408;-95
2021/03/15 04:24:59;;;;;;;23.47;18.87;;;;;;;;;;6317506;22;20421;-93
2021/03/15 04:27:25;;;;;;;19.70;16.73;;;;;;;;;;6322938;22;20475;-96
2021/03/15 04:29:52;;;;;;;20.60;16.40;;;;;;;;;;6319243;22;20443;-93
2021/03/15 04:32:19;;;;;;;21.20;17.07;;;;;;;;;;6320216;22;20409;-94
2021/03/15 04:34:46;;;;;;;24.23;17.50;;;;;;;;;;6320751;22;20441;-96
2021/03/15 04:37:13;;;;;;;23.10;17.63;;;;;;;;;;6317936;22;20405;-90
2021/03/15 04:39:39;;;;;;;25.13;17.80;;;;;;;;;;6320833;22;20729;-93
2021/03/15 04:42:05;;;;;;;24.87;17.07;;;;;;;;;;6319234;22;20405;-94
2021/03/15 04:44:34;;;;;;;18.90;16.17;;;;;;;;;;6320564;22;20411;-94
2021/03/15 04:47:01;;;;;;;21.40;16.03;;;;;;;;;;6321386;22;20408;-95
2021/03/15 04:49:27;;;;;;;21.50;17.10;;;;;;;;;;6323856;22;20463;-94
2021/03/15 04:51:54;;;;;;;23.93;17.97;;;;;;;;;;6292727;22;20399;-93
2021/03/15 04:54:23;;;;;;;20.80;16.53;;;;;;;;;;6318987;22;20436;-94
2021/03/15 04:56:49;;;;;;;20.83;17.30;;;;;;;;;;6319745;22;20442;-92
2021/03/15 04:59:18;;;;;;;20.07;16.30;;;;;;;;;;6319741;22;20421;-93
2021/03/15 05:01:44;;;;;;;25.03;17.47;;;;;;;;;;6317695;22;20833;-93
2021/03/15 05:04:11;;;;;;;20.53;16.00;;;;;;;;;;6320688;22;20432;-91
2021/03/15 05:06:38;;;;;;;18.73;16.30;;;;;;;;;;6320105;22;20410;-96
2021/03/15 05:09:07;;;;;;;21.10;14.70;;;;;;;;;;6321862;22;20441;-93
2021/03/15 05:11:35;;;;;;;20.20;17.00;;;;;;;;;;6320241;22;20454;-95
2021/03/15 05:14:05;;;;;;;17.70;15.67;;;;;;;;;;6319066;22;20419;-94
2021/03/15 05:16:34;;;;;;;24.53;15.03;;;;;;;;;;6321360;22;20432;-95
2021/03/15 05:19:00;;;;;;;17.73;14.17;;;;;;;;;;6319045;22;20437;-94
2021/03/15 05:21:27;;;;;;;19.53;14.83;;;;;;;;;;6325482;22;20419;-91
2021/03/15 05:23:55;;;;;;;17.83;15.10;;;;;;;;;;6325266;22;20415;-93
2021/03/15 05:26:22;;;;;;;18.43;14.10;;;;;;;;;;6322102;22;20444;-94
2021/03/15 05:28:49;;;;;;;18.87;14.40;;;;;;;;;;6318653;22;20405;-95
2021/03/15 05:31:16;;;;;;;16.53;14.70;;;;;;;;;;6319832;22;20782;-95
2021/03/15 05:33:42;;;;;;;18.80;15.20;;;;;;;;;;6318692;22;20409;-92
2021/03/15 05:36:10;;;;;;;15.90;14.03;;;;;;;;;;6320145;22;20418;-93
2021/03/15 05:38:38;;;;;;;18.57;14.27;;;;;;;;;;6316111;22;20967;-93
2021/03/15 05:41:05;;;;;;;19.30;13.30;;;;;;;;;;6317188;22;20414;-94
2021/03/15 05:43:34;;;;;;;17.03;13.40;;;;;;;;;;6316268;22;20441;-96
2021/03/15 05:46:08;;;;;;;16.23;14.50;;;;;;;;;;6317037;22;20413;-94
2021/03/15 05:48:56;;;;;;;15.33;13.53;;;;;;;;;;6317261;22;20435;-94
2021/03/15 05:51:40;;;;;;;19.37;15.27;;;;;;;;;;6318102;22;20408;-94
2021/03/15 05:54:38;;;;;;;19.23;15.53;;;;;;;;;;6304984;22;20420;-94
2021/03/15 05:57:13;;;;;;;18.00;15.17;;;;;;;;;;6316695;22;20440;-94
2021/03/15 05:59:51;;;;;;;18.27;15.07;;;;;;;;;;6317020;22;20410;-92
2021/03/15 06:02:25;;;;;;;19.37;15.60;;;;;;;;;;6317597;22;20418;-94
2021/03/15 06:05:06;;;;;;;18.07;14.87;;;;;;;;;;6317640;22;20419;-93
2021/03/15 06:07:33;;;;;;;20.10;15.40;;;;;;;;;;6318199;22;20410;-94
2021/03/15 06:10:03;;;;;;;21.50;15.90;;;;;;;;;;6317945;22;20484;-95
2021/03/15 06:12:36;;;;;;;19.87;15.80;;;;;;;;;;6319793;22;20437;-94
2021/03/15 06:15:02;;;;;;;18.83;14.70;;;;;;;;;;6319765;22;20438;-91
2021/03/15 06:17:31;;;;;;;17.40;14.77;;;;;;;;;;6322510;22;20401;-94
2021/03/15 06:19:57;;;;;;;18.80;14.50;;;;;;;;;;6319536;22;20413;-92
2021/03/15 06:22:24;;;;;;;21.90;16.90;;;;;;;;;;6318535;22;20450;-94
2021/03/15 06:24:50;;;;;;;18.47;15.20;;;;;;;;;;6318003;22;20418;-90
2021/03/15 06:27:17;;;;;;;22.50;15.10;;;;;;;;;;6320656;22;20419;-94
2021/03/15 06:29:43;;;;;;;17.13;15.30;;;;;;;;;;6320482;22;20796;-93
2021/03/15 06:32:10;;;;;;;18.00;14.57;;;;;;;;;;6319951;22;20408;-93
2021/03/15 06:34:41;;;;;;;17.70;15.33;;;;;;;;;;6318926;22;20445;-93
2021/03/15 06:37:08;;;;;;;16.77;14.53;;;;;;;;;;6318976;22;20402;-94
2021/03/15 06:39:36;;;;;;;17.30;15.10;;;;;;;;;;6323342;22;20428;-92
2021/03/15 06:42:06;;;;;;;17.47;14.80;;;;;;;;;;6320269;22;20446;-93
2021/03/15 06:44:32;;;;;;;23.10;16.10;;;;;;;;;;6292667;22;20439;-93
2021/03/15 06:46:58;;;;;;;22.40;15.07;;;;;;;;;;6320224;22;20403;-94
2021/03/15 06:49:24;;;;;;;17.27;15.30;;;;;;;;;;6322172;22;20481;-96
2021/03/15 06:52:04;;;;;;;18.93;15.60;;;;;;;;;;6320258;22;20410;-94
2021/03/15 06:54:30;;;;;;;22.57;15.63;;;;;;;;;;6320931;22;20420;-95
2021/03/15 06:57:15;;;;;;;18.87;16.40;;;;;;;;;;6313491;22;20438;-92
2021/03/15 06:59:48;;;;;;;17.93;14.73;;;;;;;;;;6316560;22;20410;-92
2021/03/15 07:02:19;;;;;;;18.47;14.03;;;;;;;;;;6320152;22;20403;-94
2021/03/15 07:04:45;;;;;;;17.60;14.17;;;;;;;;;;6320641;22;20395;-92
2021/03/15 07:07:20;;;;;;;15.40;13.80;;;;;;;;;;6319616;22;20461;-94
2021/03/15 07:09:48;;;;;;;15.07;13.47;;;;;;;;;;6292869;22;20461;-95
2021/03/15 07:12:18;;;;;;;15.83;13.43;;;;;;;;;;6317922;22;20414;-93
2021/03/15 07:14:45;;;;;;;16.10;14.20;;;;;;;;;;6318430;22;20411;-94
2021/03/15 07:17:19;;;;;;;16.30;13.93;;;;;;;;;;6322943;22;20412;-96
2021/03/15 07:19:45;;;;;;;14.80;13.20;;;;;;;;;;6319709;22;20416;-93
2021/03/15 07:22:18;;;;;;;16.23;12.97;;;;;;;;;;6318467;22;20435;-93
2021/03/15 07:24:44;;;;;;;17.93;13.70;;;;;;;;;;6318025;22;20422;-95
2021/03/15 07:27:27;;;;;;;16.67;14.87;;;;;;;;;;6320790;22;20420;-94
2021/03/15 07:29:53;;;;;;;16.07;14.37;;;;;;;;;;6320120;22;20442;-94
2021/03/15 07:32:37;;;;;;;18.13;14.87;;;;;;;;;;6322206;22;20416;-94
2021/03/15 07:35:19;;;;;;;16.00;13.93;;;;;;;;;;6323649;22;20423;-92
2021/03/15 07:37:46;;;;;;;18.90;15.07;;;;;;;;;;6318889;22;20411;-92
2021/03/15 07:40:14;;;;;;;17.00;14.27;;;;;;;;;;6321021;22;20440;-96
2021/03/15 07:42:56;;;;;;;16.10;14.00;;;;;;;;;;6322813;22;20433;-94
2021/03/15 07:45:28;;;;;;;17.73;14.10;;;;;;;;;;6322048;22;20403;-95
2021/03/15 07:47:54;;;;;;;19.67;14.30;;;;;;;;;;6321394;22;20408;-93
2021/03/15 07:50:20;;;;;;;20.10;14.73;;;;;;;;;;6320557;22;20455;-93
2021/03/15 07:52:51;;;;;;;16.67;14.10;;;;;;;;;;6319952;22;20437;-94
2021/03/15 07:55:32;;;;;;;18.33;13.87;;;;;;;;;;6322555;22;20461;-93
2021/03/15 07:57:59;;;;;;;17.70;14.60;;;;;;;;;;6325937;22;20440;-93
2021/03/15 08:00:25;;;;;;;21.13;14.33;;;;;;;;;;6323737;22;20889;-94
2021/03/15 08:02:58;;;;;;;16.93;13.90;;;;;;;;;;6324350;22;20404;-96
2021/03/15 08:05:24;;;;;;;16.50;14.70;;;;;;;;;;6295857;22;20463;-94
2021/03/15 08:08:01;;;;;;;17.10;14.83;;;;;;;;;;6322277;22;20418;-93
2021/03/15 08:10:27;;;;;;;17.40;13.67;;;;;;;;;;6319875;22;20448;-93
2021/03/15 08:12:53;;;;;;;17.60;14.23;;;;;;;;;;6321408;22;20403;-91
2021/03/15 08:15:20;;;;;;;16.80;14.90;;;;;;;;;;6321807;22;20407;-92
2021/03/15 08:17:48;;;;;;;17.80;14.17;;;;;;;;;;6321194;22;20397;-92
2021/03/15 08:20:15;;;;;;;18.23;15.53;;;;;;;;;;6319783;22;20850;-94
2021/03/15 08:22:42;;;;;;;20.90;15.30;;;;;;;;;;6322589;22;20411;-93
2021/03/15 08:25:10;;;;;;;20.07;15.13;;;;;;;;;;6320637;22;20416;-92
2021/03/15 08:27:38;;;;;;;18.20;16.00;;;;;;;;;;6327064;22;20406;-90
2021/03/15 08:30:06;;;;;;;16.77;13.93;;;;;;;;;;6295121;22;20534;-92
2021/03/15 08:32:36;;;;;;;14.97;13.43;;;;;;;;;;6324035;22;20434;-95
2021/03/15 08:35:03;;;;;;;16.90;13.43;;;;;;;;;;6320781;22;20465;-95
2021/03/15 08:37:50;;;;;;;14.70;13.20;;;;;;;;;;6324149;22;20419;-96
2021/03/15 08:40:38;;;;;;;15.90;12.57;;;;;;;;;;6318357;22;20428;-92
2021/03/15 08:43:29;;;;;;;13.73;12.13;;;;;;;;;;6323511;22;20461;-95
2021/03/15 08:46:03;;;;;;;16.87;12.77;;;;;;;;;;6309533;22;20444;-96
2021/03/15 08:48:49;;;;;;;12.63;11.07;;;;;;;;;;6323211;22;20489;-95
2021/03/15 08:51:16;;;;;;;13.60;11.30;;;;;;;;;;6319343;22;20452;-94
2021/03/15 08:53:52;;;;;;;13.33;11.80;;;;;;;;;;6321396;22;20404;-95
2021/03/15 08:56:44;;;;;;;13.50;11.73;;;;;;;;;;6321577;22;20408;-93
2021/03/15 08:59:10;;;;;;;14.23;11.00;;;;;;;;;;6323372;22;20909;-93
2021/03/15 09:02:01;;;;;;;13.60;11.60;;;;;;;;;;6324869;22;20432;-93
2021/03/15 09:04:34;;;;;;;14.83;11.33;;;;;;;;;;6331488;22;20447;-95
2021/03/15 09:07:03;;;;;;;13.20;11.90;;;;;;;;;;6328169;22;20400;-94
2021/03/15 09:09:30;;;;;;;12.03;10.73;;;;;;;;;;6320422;22;20458;-94
2021/03/15 09:11:56;;;;;;;15.80;10.80;;;;;;;;;;6315935;22;20416;-94
2021/03/15 09:14:43;;;;;;;16.33;10.70;;;;;;;;;;6316832;22;20404;-95
2021/03/15 09:17:34;;;;;;;11.20;10.10;;;;;;;;;;6322762;22;20428;-94
2021/03/15 09:20:17;;;;;;;10.13;9.10;;;;;;;;;;6315156;22;20439;-93
2021/03/15 09:22:45;;;;;;;12.50;10.03;;;;;;;;;;6320354;22;20463;-95
2021/03/15 09:25:19;;;;;;;10.83;9.43;;;;;;;;;;6321188;22;20419;-96
2021/03/15 09:27:58;;;;;;;11.17;10.07;;;;;;;;;;6322743;22;20412;-96
2021/03/15 09:30:25;;;;;;;11.33;10.13;;;;;;;;;;6321397;22;20462;-95
2021/03/15 09:32:52;;;;;;;14.33;8.97;;;;;;;;;;6322895;22;20404;-93
2021/03/15 09:35:21;;;;;;;10.70;9.60;;;;;;;;;;6323173;22;20412;-95
2021/03/15 09:37:49;;;;;;;12.63;9.30;;;;;;;;;;6320305;22;20418;-94
2021/03/15 09:40:20;;;;;;;12.00;8.60;;;;;;;;;;6322935;22;20412;-93
2021/03/15 09:42:49;;;;;;;10.40;9.23;;;;;;;;;;6323796;22;20415;-94
2021/03/15 09:45:35;;;;;;;9.27;8.47;;;;;;;;;;6325610;22;20901;-92
2021/03/15 09:48:03;;;;;;;11.40;8.87;;;;;;;;;;6321269;22;20429;-93
2021/03/15 09:50:30;;;;;;;11.07;8.77;;;;;;;;;;6323421;22;20451;-92
2021/03/15 09:53:11;;;;;;;11.77;9.27;;;;;;;;;;6320611;22;20894;-96
2021/03/15 09:55:37;;;;;;;9.17;8.23;;;;;;;;;;6323401;22;20404;-95
2021/03/15 09:58:06;;;;;;;10.07;9.07;;;;;;;;;;6320149;22;20416;-93
2021/03/15 10:00:32;;;;;;;8.90;8.10;;;;;;;;;;6323338;22;20408;-92
2021/03/15 10:02:58;;;;;;;8.47;7.60;;;;;;;;;;6320105;22;20415;-92
2021/03/15 10:05:24;;;;;;;8.47;7.67;;;;;;;;;;6315194;22;20430;-93
2021/03/15 10:07:50;;;;;;;10.10;8.07;;;;;;;;;;6317825;22;20426;-94
2021/03/15 10:10:18;;;;;;;8.40;7.30;;;;;;;;;;6317364;22;20530;-94
2021/03/15 10:12:47;;;;;;;9.93;8.20;;;;;;;;;;6316978;22;20414;-93
2021/03/15 10:15:13;;;;;;;9.00;8.00;;;;;;;;;;6317947;22;20463;-94
2021/03/15 10:17:40;;;;;;;9.40;8.40;;;;;;;;;;6317730;22;20426;-93
2021/03/15 10:20:07;;;;;;;9.93;9.00;;;;;;;;;;6319775;22;20416;-93
2021/03/15 10:22:33;;;;;;;10.20;9.10;;;;;;;;;;6318805;22;20418;-95
2021/03/15 10:24:59;;;;;;;8.00;7.30;;;;;;;;;;6319244;22;20414;-95
2021/03/15 10:27:36;;;;;;;8.13;6.53;;;;;;;;;;6322944;22;20409;-94
2021/03/15 10:30:06;;;;;;;7.20;6.30;;;;;;;;;;6295505;22;20940;-92
2021/03/15 10:32:34;;;;;;;10.60;7.00;;;;;;;;;;6322397;22;20405;-94
2021/03/15 10:35:01;;;;;;;6.30;5.80;;;;;;;;;;6324726;22;20431;-92
2021/03/15 10:37:28;;;;;;;6.63;6.03;;;;;;;;;;6326287;22;20417;-94
2021/03/15 10:39:57;;;;;;;9.40;6.50;;;;;;;;;;6326679;22;20493;-94
2021/03/15 10:42:23;;;;;;;6.40;5.60;;;;;;;;;;6327777;22;20404;-96
2021/03/15 10:44:54;;;;;;;9.40;6.47;;;;;;;;;;6326148;22;20434;-94
2021/03/15 10:47:27;;;;;;;9.73;6.73;;;;;;;;;;6323253;22;20438;-93
2021/03/15 10:49:54;;;;;;;11.43;8.73;;;;;;;;;;6326467;22;20442;-96
2021/03/15 10:52:27;;;;;;;10.50;9.20;;;;;;;;;;6298015;22;20428;-96
2021/03/15 10:54:53;;;;;;;13.13;10.40;;;;;;;;;;6322276;22;20411;-95
2021/03/15 10:57:21;;;;;;;8.83;7.93;;;;;;;;;;6322911;22;20442;-95
2021/03/15 10:59:47;;;;;;;9.37;8.13;;;;;;;;;;6323294;22;20396;-93
2021/03/15 11:02:31;;;;;;;10.63;8.37;;;;;;;;;;6325862;22;20420;-96
2021/03/15 11:04:58;;;;;;;8.70;7.80;;;;;;;;;;6324679;22;20417;-96
2021/03/15 11:07:40;;;;;;;9.30;7.97;;;;;;;;;;6333024;22;20401;-96
2021/03/15 11:10:23;;;;;;;9.03;8.13;;;;;;;;;;6334726;22;20793;-96
2021/03/15 11:12:54;;;;;;;8.80;7.90;;;;;;;;;;6330307;22;20409;-96
2021/03/15 11:15:22;;;;;;;7.20;6.50;;;;;;;;;;6333732;22;20905;-96
2021/03/15 11:18:00;;;;;;;7.37;6.60;;;;;;;;;;6332119;22;20412;-96
2021/03/15 11:20:34;;;;;;;7.60;6.80;;;;;;;;;;6328631;22;20411;-96
2021/03/15 11:23:20;;;;;;;6.20;5.67;;;;;;;;;;6332689;22;20440;-96
2021/03/15 11:45:31;;;;;;;8.73;4.47;;;;;;;;;;6331053;22;20416;-96
2021/03/15 11:53:15;;;;;;;7.53;5.10;;;;;;;;;;6319722;22;20472;-96
2021/03/15 11:55:42;;;;;;;4.83;4.33;;;;;;;;;;6332064;22;20475;-96
2021/03/15 11:58:11;;;;;;;5.40;4.40;;;;;;;;;;6329716;22;20435;-96
2021/03/15 12:00:38;;;;;;;5.60;4.97;;;;;;;;;;6331639;22;20431;-96
2021/03/15 12:03:05;;;;;;;9.90;9.00;;;;;;;;;;6300708;22;20446;-95
2021/03/15 12:05:31;;;;;;;4.53;4.13;;;;;;;;;;6320682;22;20416;-95
2021/03/15 12:07:57;;;;;;;4.93;4.53;;;;;;;;;;6318515;22;20476;-95
2021/03/15 12:10:24;;;;;;;4.77;4.30;;;;;;;;;;6317312;22;20444;-95
2021/03/15 12:12:50;;;;;;;5.47;4.23;;;;;;;;;;6319500;22;20479;-95
2021/03/15 12:15:16;;;;;;;3.80;3.13;;;;;;;;;;6317969;22;20416;-96
2021/03/15 12:17:43;;;;;;;2.60;2.40;;;;;;;;;;6317833;22;20434;-94
2021/03/15 12:20:09;;;;;;;2.20;2.00;;;;;;;;;;6316934;22;20435;-95
2021/03/15 12:22:35;;;;;;;1.50;1.40;;;;;;;;;;6319893;22;20470;-96
2021/03/15 12:25:01;;;;;;;1.60;1.50;;;;;;;;;;6319213;22;20419;-95
2021/03/15 12:27:28;;;;;;;4.27;3.60;;;;;;;;;;6318753;22;20435;-96
2021/03/15 12:29:55;;;;;;;7.07;4.67;;;;;;;;;;6317014;22;20440;-95
2021/03/15 12:32:22;;;;;;;6.20;4.63;;;;;;;;;;6318818;22;20517;-94
2021/03/15 12:34:48;;;;;;;4.23;3.77;;;;;;;;;;6324838;22;20412;-96
2021/03/15 12:37:14;;;;;;;5.30;4.50;;;;;;;;;;6319490;22;20416;-94
2021/03/15 12:39:40;;;;;;;4.80;4.40;;;;;;;;;;6318037;22;20468;-93
2021/03/15 12:42:06;;;;;;;5.03;4.40;;;;;;;;;;6319779;22;20902;-96
2021/03/15 12:44:33;;;;;;;4.60;3.03;;;;;;;;;;6316817;22;20434;-94
2021/03/15 12:46:59;;;;;;;3.40;2.83;;;;;;;;;;6318478;22;20415;-96
2021/03/15 12:49:25;;;;;;;3.20;2.07;;;;;;;;;;6318736;22;20415;-95
2021/03/15 12:51:51;;;;;;;1.93;1.83;;;;;;;;;;6316275;22;20458;-94
2021/03/15 12:54:17;;;;;;;1.43;1.33;;;;;;;;;;6319039;22;20408;-94
2021/03/15 12:56:43;;;;;;;1.87;1.63;;;;;;;;;;6323594;22;20408;-95
2021/03/15 12:59:10;;;;;;;7.33;1.70;;;;;;;;;;6319615;22;20434;-95
2021/03/15 13:01:37;;;;;;;2.83;2.50;;;;;;;;;;6317036;22;20443;-96
2021/03/15 13:04:03;;;;;;;1.90;1.80;;;;;;;;;;6320154;22;20408;-93
2021/03/15 13:06:30;;;;;;;3.00;2.70;;;;;;;;;;6318443;22;20408;-94
2021/03/15 13:08:56;;;;;;;4.67;3.70;;;;;;;;;;6317299;22;20404;-96
2021/03/15 13:11:22;;;;;;;7.40;5.03;;;;;;;;;;6315457;22;20512;-94
2021/03/15 13:13:48;;;;;;;5.40;4.20;;;;;;;;;;6317102;22;20928;-94
2021/03/15 13:16:14;;;;;;;4.17;3.20;;;;;;;;;;6316628;22;20404;-95
2021/03/15 13:18:48;;;;;;;3.00;2.80;;;;;;;;;;6322025;22;20422;-96
2021/03/15 13:21:14;;;;;;;10.73;8.40;;;;;;;;;;6318560;22;20416;-95
2021/03/15 13:23:40;;;;;;;8.63;7.23;;;;;;;;;;6318590;22;20412;-95
2021/03/15 13:26:06;;;;;;;11.70;9.87;;;;;;;;;;6320089;22;20435;-95
2021/03/15 13:28:32;;;;;;;14.43;11.63;;;;;;;;;;6321533;22;20412;-96
2021/03/15 13:30:59;;;;;;;17.07;14.13;;;;;;;;;;6320230;22;20444;-96
2021/03/15 13:33:25;;;;;;;17.97;15.20;;;;;;;;;;6316878;22;20443;-95
2021/03/15 13:35:53;;;;;;;17.47;13.33;;;;;;;;;;6318710;22;20411;-96
2021/03/15 13:38:19;;;;;;;13.80;11.97;;;;;;;;;;6317456;22;20490;-96
2021/03/15 13:40:45;;;;;;;11.03;8.37;;;;;;;;;;6318638;22;20409;-96
2021/03/15 13:43:11;;;;;;;7.33;4.90;;;;;;;;;;6318984;22;20396;-96
2021/03/15 13:45:38;;;;;;;4.47;2.00;;;;;;;;;;6319916;22;20409;-95
2021/03/15 13:48:04;;;;;;;2.63;2.40;;;;;;;;;;6314904;22;20417;-94
2021/03/15 13:50:30;;;;;;;3.97;3.57;;;;;;;;;;6317856;22;20455;-96
2021/03/15 13:52:57;;;;;;;1.73;1.37;;;;;;;;;;6315110;22;20414;-96
2021/03/15 13:55:23;;;;;;;1.63;1.50;;;;;;;;;;6316525;22;20402;-94
2021/03/15 13:57:50;;;;;;;1.30;1.20;;;;;;;;;;6319968;22;20405;-95
2021/03/15 14:00:17;;;;;;;2.13;1.10;;;;;;;;;;6314972;22;20429;-95
2021/03/15 14:02:43;;;;;;;1.33;1.23;;;;;;;;;;6310530;22;20414;-95
2021/03/15 14:05:09;;;;;;;1.30;1.20;;;;;;;;;;6319093;22;20561;-96
2021/03/15 14:07:38;;;;;;;6.00;4.10;;;;;;;;;;6318907;22;20457;-96
2021/03/15 14:10:07;;;;;;;5.93;4.23;;;;;;;;;;6323447;22;20442;-96
2021/03/15 14:12:35;;;;;;;5.10;4.10;;;;;;;;;;6326384;22;20409;-95
2021/03/15 14:15:02;;;;;;;5.37;4.10;;;;;;;;;;6323184;22;20458;-96
2021/03/15 14:17:32;;;;;;;6.50;3.73;;;;;;;;;;6328227;22;20406;-96
2021/03/15 14:20:00;;;;;;;3.73;3.40;;;;;;;;;;6326908;22;20429;-96
2021/03/15 14:22:27;;;;;;;3.60;3.30;;;;;;;;;;6317600;22;20421;-95
2021/03/15 14:24:53;;;;;;;2.33;2.13;;;;;;;;;;6315451;22;20414;-96
2021/03/15 14:30:24;;;;;;;3.13;2.43;;;;;;;;;;6326643;22;20435;-96
2021/03/15 14:32:49;;;;;;;3.80;2.80;;;;;;;;;;6320197;22;20414;-92
2021/03/15 14:35:15;;;;;;;5.97;3.63;;;;;;;;;;6320851;22;20491;-93
2021/03/15 14:37:41;;;;;;;8.10;3.87;;;;;;;;;;6322382;22;20507;-93
2021/03/15 14:40:08;;;;;;;3.17;2.87;;;;;;;;;;6318846;22;20420;-94
2021/03/15 14:42:35;;;;;;;2.60;2.40;;;;;;;;;;6320710;22;20429;-96
2021/03/15 14:45:04;;;;;;;3.07;2.77;;;;;;;;;;6318792;22;20417;-93
2021/03/15 14:47:31;;;;;;;4.70;3.43;;;;;;;;;;6322977;22;20407;-94
2021/03/15 14:49:59;;;;;;;3.67;3.07;;;;;;;;;;6322407;22;20432;-95
2021/03/15 14:52:25;;;;;;;5.27;4.53;;;;;;;;;;6325300;22;20420;-91
2021/03/15 14:54:51;;;;;;;6.60;5.17;;;;;;;;;;6325112;22;20472;-96
2021/03/15 14:57:18;;;;;;;5.40;4.40;;;;;;;;;;6329178;22;20416;-92
2021/03/15 14:59:44;;;;;;;4.23;3.50;;;;;;;;;;6323728;22;20733;-93
2021/03/15 15:02:13;;;;;;;4.60;4.10;;;;;;;;;;6319576;22;21015;-93
2021/03/15 15:04:40;;;;;;;5.97;5.37;;;;;;;;;;6320174;22;20404;-96